OIBS  Sirri Island  Airport

Iran

Add Bookmark
Status IATA
Operational SXI
Latitude Longitude
25° 54' 32" N 54° 32' 21" E
25.908899 54.539398
Local (DST + 5) UTC (GMT + 4)
Mar 28, 2015 03:32 Mar 28, 2015 11:02
Sunrise-Sunset Local UTC
Begin Civil Twilight 06:23 01:53
Sunrise 06:46 02:16
Sunset 07:07 14:37
End Civil Twilight 07:30 15:00

Current Weather

METAR Observed VFR
OIBS 281000Z 24012KT CAVOK 26/21 Q1014 Sat, Mar 28, 2015 @ 10:00 UTC
(1 Hour, 2 Minutes ago)
Visual Flight Rules
Wind Visibility Clouds Conditions
240° at 12 knots (22 kph) 10 km or more
  • Clear skies
  • No significant weather
Temperatures Readings Precipitation
Current Temp 26°C (79°F)
Dewpoint 21°C (70°F)
Humidity 74%
Altimeter 29.94"Hg
Sea Level Pressure 1014mb
Field Elevation 45.93'
None Recorded

Additional weather within a 92.6km radius of OIBS

Map ICAO Location
OIBA 49.4km E (094°)
OIBL 74.8km N (022°)
OIBK 88.3km N (321°)

24 Hour Weather History

Loading
-

24 Hour Weather Graphs

Loading
-

CheckWX.com is intended as a tool to help pilots better visualize weather data. It is not intended as a substitute for an official weather briefing obtained from a Flight Service Station. CheckWX.com does not meet the FAA requirements for an official pre-flight weather briefing. Therefore, it's important that pilots still call and obtain an official FSS pre-flight weather briefing.